Time;durP1;ratioP1;P1;durP2;ratioP2;P2;SDS_P1;SDS_P2;PMS_P1;PMS_P2;Temp;Humidity;BMP_temperature;BMP_pressure;BME280_temperature;BME280_humidity;BME280_pressure;Samples;Min_cycle;Max_cycle;Signal;HPM_P1;HPM_P2
2022/04/15 00:06:18;;;;;;;;;;;;;;;;;;;;;
2022/04/15 00:09:25;;;;;;;30.80;11.65;;;;;;;10.41;49.69;92962.13;4937225;29;20304;-92
2022/04/15 00:17:23;;;;;;;37.63;12.68;;;;;;;10.09;49.87;92927.78;5066092;28;20025;-90
2022/04/15 00:20:10;;;;;;;;;;;;;;;;;;;;;
2022/04/15 00:22:54;;;;;;;39.22;14.07;;;;;;;10.05;50.19;92930.16;5049343;28;20037;-91
2022/04/15 00:26:06;;;;;;;;;;;;;;;;;;;;;
2022/04/15 00:28:52;;;;;;;;;;;;;;;;;;;;;
2022/04/15 00:31:31;;;;;;;39.28;12.48;;;;;;;9.99;50.84;92932.00;5034781;28;20127;-92
2022/04/15 00:34:10;;;;;;;40.50;12.25;;;;;;;10.16;50.61;92949.19;5027386;28;20048;-92
2022/04/15 00:36:48;;;;;;;35.95;12.35;;;;;;;9.90;50.63;92917.16;5043341;28;20110;-91
2022/04/15 00:39:46;;;;;;;;;;;;;;;;;;;;;
2022/04/15 00:42:51;;;;;;;35.08;11.98;;;;;;;9.88;50.70;92906.97;5045064;28;20049;-91
2022/04/15 00:45:38;;;;;;;34.40;12.43;;;;;;;9.85;50.75;92906.75;5012013;28;20120;-92
2022/04/15 00:48:27;;;;;;;34.30;12.48;;;;;;;10.19;50.52;92959.88;4992393;28;20128;-92
2022/04/15 00:51:21;;;;;;;31.07;11.67;;;;;;;10.17;50.61;92959.34;5026075;28;20092;-92
2022/04/15 00:54:30;;;;;;;38.53;12.25;;;;;;;10.15;50.98;92953.63;5031497;28;20276;-93
2022/04/15 00:57:26;;;;;;;37.50;12.30;;;;;;;9.88;50.87;92917.41;5062437;28;20105;-92
2022/04/15 01:02:57;;;;;;;40.80;11.95;;;;;;;9.73;51.08;92896.63;5033922;28;20045;-92
2022/04/15 01:08:36;;;;;;;35.88;12.38;;;;;;;9.93;50.51;92921.84;5044563;28;20490;-92
2022/04/15 01:11:18;;;;;;;32.63;12.05;;;;;;;9.95;50.73;92917.13;5020311;28;20135;-92
2022/04/15 01:14:05;;;;;;;36.05;12.23;;;;;;;9.66;51.42;92886.47;5035766;28;20505;-92
2022/04/15 01:16:52;;;;;;;36.45;12.40;;;;;;;9.73;51.68;92902.63;4997442;28;20072;-93
2022/04/15 01:19:42;;;;;;;38.47;11.50;;;;;;;9.70;51.36;92895.31;4999117;28;20030;-92
2022/04/15 01:22:48;;;;;;;;;;;;;;;;;;;;;
2022/04/15 01:25:27;;;;;;;30.10;11.68;;;;;;;9.70;51.66;92899.75;5013583;28;20378;-92
2022/04/15 01:28:16;;;;;;;34.15;11.82;;;;;;;9.76;51.46;92914.38;4981564;28;20129;-92
2022/04/15 01:30:59;;;;;;;;;;;;;;;;;;;;;
2022/04/15 01:33:54;;;;;;;40.47;12.32;;;;;;;9.66;51.64;92903.94;5013660;28;20383;-92
2022/04/15 01:36:22;;;;;;;30.23;11.65;;;;;;;9.57;51.83;92896.69;5013322;28;20038;-92
2022/04/15 01:38:58;;;;;;;31.00;11.82;;;;;;;9.83;51.88;92930.53;5040906;28;20109;-92
2022/04/15 01:41:49;;;;;;;35.38;11.85;;;;;;;9.65;51.86;92907.63;5012389;28;20136;-91
2022/04/15 01:44:57;;;;;;;32.20;11.90;;;;;;;9.66;51.88;92915.22;5030296;28;20052;-93
2022/04/15 01:47:56;;;;;;;;;;;;;;;;;;;;;
2022/04/15 01:50:43;;;;;;;32.43;10.63;;;;;;;9.88;51.78;92945.41;5033379;28;20049;-93
2022/04/15 01:53:40;;;;;;;;;;;;;;;;;;;;;
2022/04/15 01:56:23;;;;;;;;;;;;;;;;;;;;;
2022/04/15 01:59:09;;;;;;;27.83;10.38;;;;;;;9.64;51.79;92908.69;5048222;28;20083;-92
2022/04/15 02:02:00;;;;;;;;;;;;;;;;;;;;;
2022/04/15 02:04:54;;;;;;;32.92;10.73;;;;;;;9.80;51.85;92931.84;5035487;28;20057;-92
2022/04/15 02:11:16;;;;;;;33.38;10.75;;;;;;;9.65;51.96;92923.31;5045465;28;20502;-91
2022/04/15 02:14:08;;;;;;;;;;;;;;;;;;;;;
2022/04/15 02:16:42;;;;;;;31.73;9.35;;;;;;;9.61;52.41;92915.22;5021692;28;20050;-92
2022/04/15 02:19:19;;;;;;;25.42;9.43;;;;;;;9.57;52.30;92914.22;5016635;28;20526;-91
2022/04/15 02:22:10;;;;;;;;;;;;;;;;;;;;;
2022/04/15 02:25:06;;;;;;;27.20;10.65;;;;;;;9.54;52.00;92906.91;4992846;28;20054;-92
2022/04/15 02:27:56;;;;;;;24.95;9.45;;;;;;;9.68;52.17;92928.81;5022891;28;20117;-91
2022/04/15 02:30:47;;;;;;;27.35;9.13;;;;;;;9.57;52.38;92917.59;5009223;28;20046;-92
2022/04/15 02:33:23;;;;;;;22.60;9.07;;;;;;;9.45;52.92;92909.28;4977938;28;20054;-92
2022/04/15 02:36:21;;;;;;;;;;;;;;;;;;;;;
2022/04/15 02:42:17;;;;;;;26.25;8.90;;;;;;;9.22;53.12;92878.56;5005601;28;20057;-92
2022/04/15 02:45:09;;;;;;;23.25;8.10;;;;;;;9.53;52.99;92931.47;5031256;28;20030;-92
2022/04/15 02:48:12;;;;;;;;;;;;;;;;;;;;;
2022/04/15 02:51:16;;;;;;;;;;;;;;;;;;;;;
2022/04/15 02:54:22;;;;;;;;;;;;;;;;;;;;;
2022/04/15 02:56:51;;;;;;;32.20;9.45;;;;;;;9.14;53.09;92883.28;5008288;28;20112;-92
2022/04/15 02:59:35;;;;;;;28.17;9.98;;;;;;;9.27;53.20;92908.03;5007292;28;20097;-91
2022/04/15 03:02:52;;;;;;;26.02;9.02;;;;;;;9.30;53.59;92912.75;4992691;28;20040;-92
2022/04/15 03:06:16;;;;;;;25.90;9.40;;;;;;;9.36;53.44;92931.78;4995393;28;20759;-90
2022/04/15 03:09:17;;;;;;;;;;;;;;;;;;;;;
2022/04/15 03:12:17;;;;;;;;;;;;;;;;;;;;;
2022/04/15 03:15:00;;;;;;;29.90;10.85;;;;;;;8.99;52.83;92875.50;5006780;28;20667;-92
2022/04/15 03:17:55;;;;;;;29.92;10.82;;;;;;;8.95;52.80;92874.47;4987871;28;20055;-91
2022/04/15 03:20:38;;;;;;;25.10;10.15;;;;;;;8.94;52.91;92868.47;5001264;28;20098;-91
2022/04/15 03:23:46;;;;;;;;;;;;;;;;;;;;;
2022/04/15 03:26:37;;;;;;;25.92;10.65;;;;;;;9.08;53.16;92902.63;4988068;28;20098;-91
2022/04/15 03:29:21;;;;;;;;;;;;;;;;;;;;;
2022/04/15 03:32:28;;;;;;;26.48;10.02;;;;;;;8.91;53.78;92895.09;4976810;28;20042;-91
2022/04/15 03:35:23;;;;;;;36.08;10.20;;;;;;;8.87;53.16;92880.22;4993276;28;20105;-92
2022/04/15 03:38:34;;;;;;;30.25;10.70;;;;;;;9.12;53.58;92923.78;4993657;28;20069;-91
2022/04/15 03:41:26;;;;;;;36.67;11.88;;;;;;;8.78;53.98;92874.78;4980109;28;20090;-92
2022/04/15 03:47:38;;;;;;;;;;;;;;;;;;;;;
2022/04/15 03:50:24;;;;;;;25.77;10.50;;;;;;;8.74;54.18;92874.53;5014465;28;20053;-91
2022/04/15 03:53:13;;;;;;;32.30;11.00;;;;;;;8.87;54.17;92890.66;4991532;28;20033;-92
2022/04/15 03:56:36;;;;;;;30.23;10.88;;;;;;;8.90;53.89;92898.00;5008819;28;20045;-92
2022/04/15 03:59:23;;;;;;;;;;;;;;;;;;;;;
2022/04/15 04:02:54;;;;;;;;;;;;;;;;;;;;;
2022/04/15 04:08:50;;;;;;;;;;;;;;;;;;;;;
2022/04/15 04:11:30;;;;;;;29.85;11.50;;;;;;;8.72;54.28;92870.63;4996685;28;20038;-91
2022/04/15 04:14:52;;;;;;;38.72;10.85;;;;;;;8.75;54.40;92875.31;5012310;28;20098;-92
2022/04/15 04:17:44;;;;;;;30.58;10.55;;;;;;;8.72;54.45;92881.06;4986311;28;20046;-92
2022/04/15 04:20:27;;;;;;;;;;;;;;;;;;;;;
2022/04/15 04:23:37;;;;;;;30.58;11.05;;;;;;;9.05;55.15;92933.72;4993060;28;20042;-91
2022/04/15 04:26:13;;;;;;;30.80;11.30;;;;;;;9.05;54.92;92937.13;4993571;28;20046;-92
2022/04/15 04:29:04;;;;;;;33.67;11.15;;;;;;;8.67;54.49;92878.44;4991365;28;20076;-92
2022/04/15 04:32:17;;;;;;;;;;;;;;;;;;;;;
2022/04/15 04:35:16;;;;;;;27.67;10.60;;;;;;;8.68;55.49;92885.25;5006926;28;20070;-91
2022/04/15 04:38:22;;;;;;;31.30;10.23;;;;;;;8.79;55.57;92902.44;4986134;28;20041;-90
2022/04/15 04:41:03;;;;;;;29.85;11.13;;;;;;;9.08;54.99;92951.47;4987776;28;20038;-89
2022/04/15 04:47:39;;;;;;;29.30;11.00;;;;;;;9.01;54.22;92932.69;4985144;28;20038;-91
2022/04/15 04:50:49;;;;;;;;;;;;;;;;;;;;;
2022/04/15 04:53:36;;;;;;;27.77;10.55;;;;;;;8.86;54.01;92899.56;5001872;28;20050;-89
2022/04/15 04:56:23;;;;;;;32.55;10.82;;;;;;;9.12;53.87;92935.00;5020785;28;20068;-91
2022/04/15 04:59:32;;;;;;;;;;;;;;;;;;;;;
2022/04/15 05:02:47;;;;;;;;;;;;;;;;;;;;;
2022/04/15 05:05:11;;;;;;;30.83;8.75;;;;;;;9.24;54.43;92934.72;5007976;28;20052;-90
2022/04/15 05:07:50;;;;;;;24.25;9.63;;;;;;;9.52;55.62;92961.25;5010717;28;20026;-91
2022/04/15 05:10:33;;;;;;;30.63;9.52;;;;;;;9.47;54.97;92937.75;5017533;28;20114;-90
2022/04/15 05:13:51;;;;;;;;;;;;;;;;;;;;;
2022/04/15 05:16:43;;;;;;;24.50;9.10;;;;;;;9.58;54.09;92923.59;5015349;28;20058;-88
2022/04/15 05:19:18;;;;;;;27.15;10.95;;;;;;;9.64;53.63;92922.53;5032878;28;20037;-87
2022/04/15 05:21:50;;;;;;;27.05;10.10;;;;;;;9.79;53.15;92927.69;5017752;28;20049;-87
2022/04/15 05:24:49;;;;;;;;;;;;;;;;;;;;;
2022/04/15 05:27:36;;;;;;;;;;;;;;;;;;;;;
2022/04/15 05:30:13;;;;;;;22.92;8.82;;;;;;;10.19;52.20;92902.31;5014667;28;20112;-87
2022/04/15 05:35:49;;;;;;;22.67;8.93;;;;;;;10.59;52.12;92926.63;5032644;28;20080;-86
2022/04/15 05:38:30;;;;;;;;;;;;;;;;;;;;;
2022/04/15 05:41:00;;;;;;;21.63;7.70;;;;;;;10.86;53.72;92929.81;5027350;28;20485;-87
2022/04/15 05:43:43;;;;;;;;;;;;;;;;;;;;;
2022/04/15 05:46:16;;;;;;;24.38;9.15;;;;;;;11.18;52.88;92931.84;5011143;28;20041;-87
2022/04/15 05:48:42;;;;;;;22.38;8.38;;;;;;;11.37;52.23;92934.53;5026321;28;20140;-89
2022/04/15 05:51:13;;;;;;;26.55;8.55;;;;;;;11.59;51.18;92940.03;5042256;28;20064;-86
2022/04/15 05:53:59;;;;;;;;;;;;;;;;;;;;;
2022/04/15 05:56:58;;;;;;;;;;;;;;;;;;;;;
2022/04/15 06:02:36;;;;;;;27.48;8.05;;;;;;;12.84;48.84;92964.31;5017618;28;20045;-91
2022/04/15 06:05:10;;;;;;;24.27;8.73;;;;;;;12.91;48.51;92948.94;5030946;28;20041;-91
2022/04/15 06:08:00;;;;;;;;;;;;;;;;;;;;;
2022/04/15 06:10:44;;;;;;;;;;;;;;;;;;;;;
2022/04/15 06:13:22;;;;;;;21.73;8.30;;;;;;;13.75;46.74;92942.69;5032281;28;20041;-90
2022/04/15 06:16:19;;;;;;;;;;;;;;;;;;;;;
2022/04/15 06:22:21;;;;;;;;;;;;;;;;;;;;;
2022/04/15 06:24:52;;;;;;;22.55;8.20;;;;;;;17.80;37.01;92952.72;5022150;28;20041;-90
2022/04/15 06:27:28;;;;;;;19.58;7.80;;;;;;;20.02;33.92;92960.50;5031977;28;20486;-90
2022/04/15 06:30:20;;;;;;;19.20;8.02;;;;;;;21.17;30.06;92955.78;5015009;28;20467;-90
2022/04/15 06:33:13;;;;;;;23.58;7.40;;;;;;;22.67;27.81;92947.88;5028531;28;20358;-91
2022/04/15 06:39:06;;;;;;;;;;;;;;;;;;;;;
2022/04/15 06:42:39;;;;;;;;;;;;;;;;;;;;;
2022/04/15 06:45:23;;;;;;;23.63;7.47;;;;;;;23.92;25.34;92967.38;5013777;28;20052;-90
2022/04/15 06:48:03;;;;;;;19.10;7.28;;;;;;;23.22;26.54;92979.88;5014838;28;20080;-91
2022/04/15 06:50:54;;;;;;;;;;;;;;;;;;;;;
2022/04/15 06:53:45;;;;;;;;;;;;;;;;;;;;;
2022/04/15 06:56:21;;;;;;;21.45;7.85;;;;;;;;;;5009239;28;20042;-90
2022/04/15 06:59:13;;;;;;;19.52;7.63;;;;;;;23.42;27.21;92962.69;4994081;28;20080;-92
2022/04/15 07:02:12;;;;;;;;;;;;;;;;;;;;;
2022/04/15 07:04:52;;;;;;;19.30;7.93;;;;;;;21.53;28.68;92922.88;5029040;28;20107;-90
2022/04/15 07:07:26;;;;;;;17.90;7.43;;;;;;;21.67;29.39;92956.28;5014457;28;20041;-91
2022/04/15 07:10:18;;;;;;;23.15;8.38;;;;;;;20.44;30.99;92981.47;5018940;28;20072;-89
2022/04/15 07:12:54;;;;;;;;;;;;;;;;;;;;;
2022/04/15 07:15:38;;;;;;;18.17;7.15;;;;;;;18.66;34.70;92934.72;5028828;28;19917;-93
2022/04/15 07:18:40;;;;;;;23.83;7.63;;;;;;;18.30;35.15;92987.22;5011934;28;20049;-91
2022/04/15 07:21:23;;;;;;;21.65;8.73;;;;;;;17.01;37.10;92952.22;4991885;28;20045;-91
2022/04/15 07:24:13;;;;;;;22.38;7.65;;;;;;;17.50;36.73;92989.00;5013519;28;20042;-92
2022/04/15 07:26:56;;;;;;;21.58;7.95;;;;;;;16.75;37.64;92947.72;5017912;28;20049;-89
2022/04/15 07:30:04;;;;;;;;;;;;;;;;;;;;;
2022/04/15 07:33:01;;;;;;;23.10;8.57;;;;;;;17.17;36.90;92942.69;5050412;28;20060;-91
2022/04/15 07:35:38;;;;;;;24.48;8.13;;;;;;;16.75;38.32;92925.78;4997973;28;20068;-90
2022/04/15 07:38:58;;;;;;;23.48;7.97;;;;;;;16.54;38.42;92938.88;5015287;28;20125;-91
2022/04/15 07:41:57;;;;;;;;;;;;;;;;;;;;;
2022/04/15 07:44:57;;;;;;;22.08;8.43;;;;;;;17.09;38.38;92977.88;5026398;28;20045;-91
2022/04/15 07:47:26;;;;;;;26.20;8.85;;;;;;;16.57;38.96;92977.88;5027625;28;20037;-90
2022/04/15 07:50:09;;;;;;;23.20;8.00;;;;;;;16.17;39.61;92925.19;5010176;28;20030;-92
2022/04/15 07:52:47;;;;;;;17.85;8.45;;;;;;;16.61;39.02;92981.47;5009592;28;20038;-91
2022/04/15 07:58:10;;;;;;;21.05;8.55;;;;;;;16.28;38.46;92934.38;5001417;28;20042;-90
2022/04/15 08:00:58;;;;;;;;;;;;;;;;;;;;;
2022/04/15 08:07:22;;;;;;;24.13;8.27;;;;;;;17.44;37.47;92964.56;5026549;28;20037;-91
2022/04/15 08:09:58;;;;;;;26.70;9.75;;;;;;;17.61;37.27;92940.69;5001796;28;20034;-90
2022/04/15 08:12:29;;;;;;;23.55;8.90;;;;;;;17.14;38.18;92931.97;5008553;28;20033;-91
2022/04/15 08:15:35;;;;;;;;;;;;;;;;;;;;;
2022/04/15 08:18:28;;;;;;;21.33;8.70;;;;;;;17.30;37.54;92945.47;5023595;28;20044;-92
2022/04/15 08:21:18;;;;;;;19.58;8.65;;;;;;;17.69;37.59;92931.13;5007224;28;20474;-93
2022/04/15 08:24:12;;;;;;;19.52;8.20;;;;;;;16.82;38.90;92965.78;5007410;28;20045;-91
2022/04/15 08:27:02;;;;;;;26.70;8.63;;;;;;;17.28;37.32;92925.38;5009979;28;20104;-91
2022/04/15 08:29:43;;;;;;;21.10;8.50;;;;;;;17.25;37.97;92938.47;5009814;28;20054;-91
2022/04/15 08:32:33;;;;;;;23.67;9.30;;;;;;;17.26;36.82;92930.22;5008977;28;20487;-91
2022/04/15 08:35:20;;;;;;;20.98;8.45;;;;;;;17.41;36.84;92938.75;5000218;28;20553;-92
2022/04/15 08:37:59;;;;;;;24.80;9.45;;;;;;;17.34;36.72;92919.91;5026687;28;20041;-93
2022/04/15 09:16:41;;;;;;;;;;;;;;;;;;;;;
2022/04/15 09:31:57;;;;;;;;;;;;;;;;;;;;;
2022/04/15 09:35:52;;;;;;;;;;;;;;;;;;;;;
2022/04/15 09:43:53;;;;;;;;;;;;;;;;;;;;;
2022/04/15 09:53:39;;;;;;;27.58;9.05;;;;;;;18.91;35.78;92925.81;5016567;28;20085;-79
2022/04/15 09:56:06;;;;;;;20.13;9.10;;;;;;;19.00;34.79;92923.03;5001693;28;20041;-80
2022/04/15 09:58:35;;;;;;;21.27;8.13;;;;;;;19.21;35.12;92916.94;5019887;28;20105;-80
2022/04/15 10:01:03;;;;;;;19.70;8.77;;;;;;;18.72;34.29;92928.13;5011020;28;20030;-80
2022/04/15 10:03:32;;;;;;;23.17;8.88;;;;;;;18.94;35.05;92924.38;5033696;28;20029;-82
2022/04/15 10:05:58;;;;;;;23.45;8.27;;;;;;;18.93;35.26;92918.28;5030917;28;20513;-81
2022/04/15 10:08:26;;;;;;;22.75;8.27;;;;;;;18.40;36.01;92911.09;5038806;28;20037;-79
2022/04/15 10:10:55;;;;;;;18.80;8.63;;;;;;;18.92;34.96;92911.44;5019852;28;20029;-81
2022/04/15 10:13:26;;;;;;;22.92;8.82;;;;;;;19.53;33.80;92916.06;5037471;28;20040;-78
2022/04/15 10:15:53;;;;;;;23.52;8.10;;;;;;;19.10;33.33;92914.69;5034540;28;20045;-77
2022/04/15 10:18:21;;;;;;;28.92;9.32;;;;;;;19.29;35.13;92916.81;5036185;28;20037;-78
2022/04/15 10:20:47;;;;;;;21.77;8.93;;;;;;;19.82;34.92;92910.91;5015768;28;20455;-76
2022/04/15 10:23:15;;;;;;;20.58;8.23;;;;;;;19.29;33.23;92900.13;5002740;28;20067;-78
2022/04/15 10:25:46;;;;;;;26.98;9.25;;;;;;;19.22;33.60;92913.16;5034493;28;20048;-75
2022/04/15 10:28:15;;;;;;;22.90;9.05;;;;;;;19.38;34.75;92915.94;5018656;28;20095;-77
2022/04/15 10:30:51;;;;;;;22.33;9.40;;;;;;;19.33;33.34;92904.44;5000776;28;20388;-79
2022/04/15 10:33:31;;;;;;;22.05;8.95;;;;;;;19.34;34.58;92907.84;5038861;28;20068;-80
2022/04/15 10:36:09;;;;;;;27.70;10.20;;;;;;;18.89;33.71;92906.00;5012750;28;20029;-77
2022/04/15 10:38:35;;;;;;;24.60;9.27;;;;;;;19.21;33.17;92907.09;5017990;28;20044;-79
2022/04/15 10:41:15;;;;;;;22.73;8.70;;;;;;;19.76;33.12;92902.38;5034153;28;20403;-78
2022/04/15 10:44:03;;;;;;;29.60;9.70;;;;;;;19.91;33.75;92900.94;5020039;28;20029;-78
2022/04/15 10:46:30;;;;;;;24.70;9.88;;;;;;;19.86;33.39;92898.50;5017838;28;20037;-78
2022/04/15 10:49:00;;;;;;;22.25;9.82;;;;;;;20.09;34.28;92896.94;5016629;28;20033;-76
2022/04/15 10:51:31;;;;;;;22.50;8.95;;;;;;;20.21;33.27;92904.09;5030388;28;20402;-77
2022/04/15 10:54:32;;;;;;;18.70;8.20;;;;;;;19.75;32.91;92893.66;5012268;28;20384;-78
2022/04/15 10:57:10;;;;;;;27.42;10.10;;;;;;;20.05;33.54;92890.72;4995362;28;20038;-79
2022/04/15 11:02:39;;;;;;;26.63;11.10;;;;;;;20.07;33.37;92888.53;4983435;28;20046;-78
2022/04/15 11:05:06;;;;;;;37.50;10.25;;;;;;;20.45;34.45;92892.63;4995226;28;20030;-78
2022/04/15 11:07:45;;;;;;;22.08;9.30;;;;;;;20.16;33.94;92875.88;4964632;28;20033;-78
2022/04/15 11:10:38;;;;;;;27.73;10.35;;;;;;;20.77;32.85;92885.56;4998113;28;20251;-81
2022/04/15 11:13:05;;;;;;;24.33;10.05;;;;;;;20.65;32.51;92877.63;5012461;28;20033;-80
2022/04/15 11:15:58;;;;;;;25.27;9.43;;;;;;;20.09;33.15;92881.00;4997733;28;20496;-78
2022/04/15 11:18:50;;;;;;;30.42;10.82;;;;;;;20.22;34.80;92878.28;4996576;28;20026;-80
2022/04/15 11:21:24;;;;;;;23.92;10.43;;;;;;;20.61;32.98;92876.75;4997295;28;20084;-80
2022/04/15 11:23:52;;;;;;;29.73;10.20;;;;;;;21.01;33.02;92873.25;4980740;28;20030;-80
2022/04/15 11:26:19;;;;;;;29.85;11.23;;;;;;;20.08;33.72;92860.81;5013824;28;20034;-78
2022/04/15 11:28:47;;;;;;;24.25;10.23;;;;;;;20.33;33.93;92869.53;4979975;28;20506;-77
2022/04/15 11:31:26;;;;;;;34.33;10.10;;;;;;;20.73;31.90;92862.63;4996953;28;20132;-76
2022/04/15 11:33:54;;;;;;;25.25;9.77;;;;;;;20.43;32.66;92862.94;5014759;28;20078;-78
2022/04/15 11:36:21;;;;;;;22.35;9.82;;;;;;;20.37;32.76;92866.94;5013761;28;20030;-80
2022/04/15 11:38:49;;;;;;;27.20;10.38;;;;;;;20.25;32.87;92856.38;4996451;28;20041;-77
2022/04/15 11:41:22;;;;;;;30.95;10.38;;;;;;;19.92;32.78;92857.31;4992156;28;20142;-78
2022/04/15 11:44:03;;;;;;;31.00;10.55;;;;;;;20.51;33.50;92856.72;5005686;28;20085;-78
2022/04/15 11:46:36;;;;;;;;;;;;;;;20.42;31.86;92853.41;5018832;28;20030;-79
2022/04/15 11:49:23;;;;;;;25.23;9.77;;;;;;;20.97;32.27;92848.44;4998492;28;19921;-78
2022/04/15 11:51:52;;;;;;;23.48;8.88;;;;;;;20.98;32.54;92847.31;5012204;28;20057;-79
2022/04/15 11:54:41;;;;;;;27.38;10.25;;;;;;;20.85;31.59;92843.97;5002408;28;20045;-78
2022/04/15 11:57:07;;;;;;;25.30;9.80;;;;;;;19.94;33.23;92836.50;5012712;28;20045;-80
2022/04/15 11:59:44;;;;;;;23.15;9.60;;;;;;;20.92;33.88;92836.16;5008095;28;20034;-78
2022/04/15 12:02:12;;;;;;;27.10;10.05;;;;;;;20.82;31.68;92852.59;4998288;28;20050;-78
2022/04/15 12:04:51;;;;;;;22.98;8.50;;;;;;;21.04;31.87;92837.97;5032600;28;20057;-79
2022/04/15 12:07:19;;;;;;;22.90;10.20;;;;;;;20.88;31.75;92829.19;5030856;28;20036;-78
2022/04/15 12:09:46;;;;;;;23.08;9.50;;;;;;;21.25;32.04;92835.03;4997757;28;20040;-80
2022/04/15 12:12:11;;;;;;;23.83;9.73;;;;;;;20.82;31.92;92833.97;5013214;28;20041;-77
2022/04/15 12:14:39;;;;;;;29.98;9.85;;;;;;;21.42;32.18;92831.28;5018008;28;20044;-78
2022/04/15 12:17:14;;;;;;;22.65;9.00;;;;;;;21.50;32.00;92822.34;5021692;28;20499;-78
2022/04/15 12:19:40;;;;;;;18.48;7.72;;;;;;;21.13;30.65;92824.50;5019591;28;20068;-78
2022/04/15 12:22:09;;;;;;;28.70;9.73;;;;;;;20.67;32.13;92824.09;5019603;28;20534;-79
2022/04/15 12:24:36;;;;;;;25.17;9.68;;;;;;;21.29;31.36;92816.50;5020997;28;20037;-79
2022/04/15 12:27:04;;;;;;;20.65;8.68;;;;;;;20.72;32.99;92821.19;5020927;28;20045;-79
2022/04/15 12:29:51;;;;;;;25.58;7.68;;;;;;;20.70;31.86;92810.13;5004335;28;20033;-79
2022/04/15 12:32:24;;;;;;;23.50;8.95;;;;;;;20.93;32.49;92805.75;5034587;28;20104;-77
2022/04/15 12:35:00;;;;;;;22.67;9.27;;;;;;;20.81;32.05;92808.50;5017914;28;20053;-79
2022/04/15 12:37:57;;;;;;;23.73;9.25;;;;;;;21.56;31.85;92799.66;5014889;28;20068;-78
2022/04/15 12:40:24;;;;;;;23.15;9.38;;;;;;;21.69;30.77;92797.66;5012947;28;20041;-78
2022/04/15 12:42:53;;;;;;;20.65;8.57;;;;;;;21.72;30.26;92804.94;4997337;28;20550;-78
2022/04/15 12:45:21;;;;;;;25.08;9.07;;;;;;;21.57;31.20;92795.09;4999365;28;20033;-80
2022/04/15 12:48:01;;;;;;;30.05;10.77;;;;;;;21.55;30.68;92789.34;5020039;28;20040;-79
2022/04/15 12:50:30;;;;;;;25.13;9.27;;;;;;;21.62;30.67;92787.63;5013153;28;20060;-78
2022/04/15 12:52:56;;;;;;;27.90;9.27;;;;;;;21.94;31.39;92781.41;5016290;28;20129;-78
2022/04/15 12:55:31;;;;;;;21.33;8.77;;;;;;;21.40;31.19;92783.69;5016239;28;20033;-77
2022/04/15 12:57:59;;;;;;;20.35;8.50;;;;;;;21.08;31.13;92779.50;5015456;28;20037;-78
2022/04/15 13:00:26;;;;;;;22.17;8.82;;;;;;;21.69;31.24;92787.00;5003858;28;20033;-77
2022/04/15 13:02:52;;;;;;;22.50;8.40;;;;;;;21.67;30.41;92773.25;5015148;28;20453;-80
2022/04/15 13:05:18;;;;;;;24.25;9.30;;;;;;;22.08;30.46;92780.94;5035908;28;20029;-78
2022/04/15 13:07:44;;;;;;;27.13;9.18;;;;;;;21.71;30.82;92779.44;5019269;28;20060;-79
2022/04/15 13:10:11;;;;;;;22.60;9.30;;;;;;;22.03;30.14;92769.44;4990412;28;20040;-78
2022/04/15 13:12:37;;;;;;;24.98;8.85;;;;;;;21.61;30.35;92763.97;5029021;28;20084;-78
2022/04/15 13:15:03;;;;;;;26.83;8.50;;;;;;;21.40;31.11;92773.03;5038026;28;20101;-79
2022/04/15 13:17:30;;;;;;;21.48;9.40;;;;;;;21.95;31.20;92767.75;5019074;28;20064;-79
2022/04/15 13:19:55;;;;;;;24.17;9.23;;;;;;;22.19;31.17;92766.69;4987542;28;20041;-79
2022/04/15 13:22:21;;;;;;;28.80;10.00;;;;;;;22.30;29.99;92758.16;5019502;28;20044;-78
2022/04/15 13:24:47;;;;;;;26.65;9.88;;;;;;;22.16;30.71;92759.41;5034749;28;20131;-78
2022/04/15 13:27:12;;;;;;;28.15;10.35;;;;;;;22.20;30.81;92751.47;5017750;28;20053;-78
2022/04/15 13:29:39;;;;;;;29.13;8.73;;;;;;;22.35;29.85;92757.88;5035958;28;20028;-78
2022/04/15 13:32:06;;;;;;;22.75;9.50;;;;;;;22.05;30.71;92750.44;5019870;28;20161;-79
2022/04/15 13:34:33;;;;;;;19.33;8.52;;;;;;;22.10;30.24;92744.81;5020133;28;20064;-79
2022/04/15 13:37:08;;;;;;;25.08;9.50;;;;;;;22.00;30.55;92742.72;5039740;28;20030;-79
2022/04/15 13:39:35;;;;;;;25.85;10.32;;;;;;;21.96;30.73;92747.19;5023050;28;20041;-78
2022/04/15 13:42:02;;;;;;;33.35;11.20;;;;;;;21.69;31.44;92746.28;4999066;28;20025;-78
2022/04/15 13:44:29;;;;;;;30.52;10.52;;;;;;;21.63;31.86;92741.19;5037435;28;20029;-79
2022/04/15 13:46:55;;;;;;;28.92;11.23;;;;;;;21.96;30.51;92741.88;5023792;28;20037;-79
2022/04/15 13:49:21;;;;;;;29.73;10.85;;;;;;;21.51;31.99;92733.34;5021433;28;20041;-78
2022/04/15 13:51:47;;;;;;;30.45;11.27;;;;;;;22.13;31.17;92736.09;5033768;28;20058;-78
2022/04/15 13:56:58;;;;;;;30.92;12.52;;;;;;;21.98;31.07;92739.63;5020515;28;20097;-77
2022/04/15 13:59:24;;;;;;;28.55;11.68;;;;;;;21.83;31.76;92728.66;5015725;28;20098;-79
2022/04/15 14:01:50;;;;;;;32.08;12.73;;;;;;;21.81;31.88;92730.16;5017411;28;20041;-80
2022/04/15 14:04:17;;;;;;;28.55;12.32;;;;;;;21.75;32.25;92736.88;5015941;28;20291;-78
2022/04/15 14:06:45;;;;;;;29.25;13.15;;;;;;;22.03;31.96;92726.78;4983036;28;20140;-77
2022/04/15 14:09:14;;;;;;;28.83;12.10;;;;;;;22.24;31.57;92737.09;5022164;28;20116;-78
2022/04/15 14:11:43;;;;;;;29.80;11.82;;;;;;;22.01;31.54;92728.25;5001128;28;20044;-77
2022/04/15 14:14:15;;;;;;;28.25;11.65;;;;;;;22.02;31.84;92732.44;4994146;28;20082;-79
2022/04/15 14:16:42;;;;;;;30.88;11.57;;;;;;;21.24;32.83;92743.00;5001934;28;20033;-79
2022/04/15 14:19:11;;;;;;;31.58;11.85;;;;;;;21.66;32.25;92734.44;5015824;28;20136;-77
2022/04/15 14:21:39;;;;;;;34.67;12.25;;;;;;;21.65;32.47;92732.88;5029425;28;20046;-78
2022/04/15 14:24:06;;;;;;;34.10;13.93;;;;;;;21.91;31.68;92734.13;5019738;28;20112;-78
2022/04/15 14:26:32;;;;;;;36.67;13.73;;;;;;;21.60;31.88;92727.81;5004530;28;20402;-79
2022/04/15 14:28:58;;;;;;;35.83;13.63;;;;;;;21.54;32.25;92734.53;5021179;28;20041;-79
2022/04/15 14:31:24;;;;;;;39.97;13.98;;;;;;;21.57;32.32;92725.84;5038102;28;20514;-79
2022/04/15 14:33:50;;;;;;;33.42;11.95;;;;;;;21.49;32.75;92740.13;5008438;28;20084;-79
2022/04/15 14:36:16;;;;;;;36.20;13.40;;;;;;;21.61;32.53;92732.00;5018922;28;20065;-81
2022/04/15 14:38:42;;;;;;;29.08;11.93;;;;;;;21.54;32.41;92723.88;5013411;28;20047;-78
2022/04/15 14:41:08;;;;;;;31.27;12.77;;;;;;;21.90;32.86;92722.72;5029781;28;20552;-77
2022/04/15 14:43:37;;;;;;;28.00;12.02;;;;;;;21.77;32.40;92722.09;5022132;28;20029;-80
2022/04/15 14:46:06;;;;;;;33.05;12.38;;;;;;;21.92;32.31;92725.81;5011513;28;20164;-78
2022/04/15 14:48:33;;;;;;;32.13;12.88;;;;;;;22.25;31.66;92716.56;4998086;28;20545;-78
2022/04/15 14:51:00;;;;;;;31.63;11.60;;;;;;;22.23;32.18;92727.56;5014711;28;20037;-78
2022/04/15 14:53:30;;;;;;;31.58;13.23;;;;;;;21.79;32.50;92721.72;5014490;28;20060;-76
2022/04/15 14:56:00;;;;;;;35.40;12.85;;;;;;;21.50;32.10;92733.69;5026375;28;20022;-78
2022/04/15 14:58:27;;;;;;;33.78;12.98;;;;;;;21.25;32.41;92725.88;5007024;28;20115;-79
2022/04/15 15:00:53;;;;;;;30.17;13.57;;;;;;;21.47;33.11;92727.16;4985438;28;20095;-77
2022/04/15 15:03:21;;;;;;;28.77;11.55;;;;;;;21.21;32.95;92714.41;5025193;28;20057;-78
2022/04/15 15:05:49;;;;;;;31.98;12.02;;;;;;;20.92;32.83;92724.41;4981218;28;20045;-77
2022/04/15 15:08:15;;;;;;;31.90;12.85;;;;;;;21.24;32.56;92719.03;5032637;28;20030;-77
2022/04/15 15:10:41;;;;;;;30.67;12.73;;;;;;;20.89;33.17;92717.09;4990744;28;20044;-78
2022/04/15 15:13:07;;;;;;;31.88;12.02;;;;;;;21.38;33.13;92724.66;4990614;28;20037;-77
2022/04/15 15:15:33;;;;;;;31.77;11.57;;;;;;;21.58;32.41;92722.06;4997392;28;20037;-78
2022/04/15 15:17:59;;;;;;;31.38;12.40;;;;;;;21.26;33.18;92719.47;5008415;28;20109;-78
2022/04/15 15:20:27;;;;;;;61.35;14.50;;;;;;;21.43;33.12;92720.97;4999406;28;20137;-79
2022/04/15 15:22:53;;;;;;;39.60;13.70;;;;;;;21.30;32.74;92728.31;4996212;28;20038;-77
2022/04/15 15:30:49;;;;;;;34.70;13.52;;;;;;;20.81;33.92;92720.72;5017081;28;20060;-77
2022/04/15 15:33:19;;;;;;;37.05;14.10;;;;;;;21.13;32.81;92718.03;5014064;28;20100;-78
2022/04/15 15:35:49;;;;;;;41.33;13.68;;;;;;;20.86;33.55;92719.69;5014277;28;20075;-78
2022/04/15 15:38:16;;;;;;;36.67;13.20;;;;;;;21.27;33.62;92712.25;5014619;28;20410;-78
2022/04/15 15:40:47;;;;;;;38.58;13.68;;;;;;;21.33;33.07;92714.28;5011880;28;20033;-79
2022/04/15 15:43:13;;;;;;;37.65;14.15;;;;;;;21.48;32.42;92712.75;4995425;28;20559;-78
2022/04/15 15:45:40;;;;;;;34.95;12.88;;;;;;;21.04;33.72;92715.53;5014167;28;20052;-78
2022/04/15 15:48:08;;;;;;;33.10;13.07;;;;;;;21.10;32.94;92724.81;5010952;28;20029;-78